White Mountain Summit Weather observations

Data are for 10 minute period ending at time listed.
 Day   Time   Solar   Ave.   Ave.  Ave.  Vector    Max.    Baro.  
  of    of     Rad.   Air    Rel.  Wind   Wind     Wind   Press.  
Year   Day            Temp.  Hum.  Speed  Dir.     Gust           
2014   (PST)   W/m2    F      %     mph   deg.      mph     mb.   
-------------------------------------------------------------------
 234    1:20    0.0    35   69.8     8    210.1    11.8   999.0 
 234    1:30    0.0    34   73.8    11    219.0    14.1   999.0 
 234    1:40    0.0    34   72.0    15    258.9    18.8   999.0 
 234    1:50    0.0    34   71.9    17    251.5    21.2   999.0 
 234    2:00    0.0    34   69.8    18    253.5    21.2   999.0 
 234    2:10    0.0    34   70.1    17    249.3    21.2   999.0 
 234    2:20    0.0    34   70.1    21    258.4    25.9   999.0 
 234    2:30    0.0    34   70.0    22    259.3    28.2   999.0 
 234    2:40    0.0    34   70.0    27    268.8    30.6   999.0 
 234    2:50    0.0    34   70.1    28    267.5    33.0   999.0 
 234    3:00    0.0    34   70.8    28    266.5    33.0   999.0 
 234    3:10    0.0    34   72.4    31    268.8    37.7   999.0 
 234    3:20    0.0    34   74.6    34    269.0    40.0   999.0 
 234    3:30    0.0    34   76.1    37    271.3    42.4   999.0 
 234    3:40    0.0    34   78.8    39    270.5    42.4   999.0 
 234    3:50    0.0    33   79.8    37    270.6    40.0   999.0 
 234    4:00    0.0    33   79.1    37    270.9    40.0   999.0 
 234    4:10    0.0    33   78.9    38    270.8    44.7   999.0 
 234    4:20    0.0    33   78.4    41    269.9    47.1   999.0 
 234    4:30    0.0    33   78.7    38    264.5    44.7   999.0 
 234    4:40    0.0    33   78.0    39    268.0    47.1   999.0 
 234    4:50    0.0    33   78.9    38    265.3    47.1   999.0 
 234    5:00    0.0    33   78.7    39    262.1    44.7   999.0 
 234    5:10    0.0    33   77.1    38    263.0    44.7   999.0 
 234    5:20    0.0    33   76.9    41    265.2    49.4   999.0 
 234    5:30    0.0    33   76.3    40    264.1    49.4   999.0 
 234    5:40    0.0    33   74.2    42    256.1    49.4   999.0 
 234    5:50    0.0    33   73.3    41    259.7    49.4   999.0 
 234    6:00    0.0    33   73.2    40    257.0    49.4   999.0 
 234    6:10    0.0    33   74.6    39    259.5    47.1   999.0 
 234    6:20    0.0    33   74.0    40    260.4    44.7   999.0 
 234    6:30    0.0    33   73.2    41    255.0    47.1   999.0 
 234    6:40    0.0    33   71.6    43    257.0    47.1   999.0 
 234    6:50    0.0    33   71.3    40    257.4    47.1   999.0 
 234    7:00    0.0    33   70.0    39    263.0    44.7   999.0 
 234    7:10    0.0    33   68.5    36    264.2    42.4   999.0 
 234    7:20    0.0    33   65.9    37    260.3    44.7   999.0 
 234    7:30    0.0    34   63.7    39    266.0    49.4   999.0 
 234    7:40    0.0    34   60.6    47    270.1    56.5   999.0 
 234    7:50    0.0    34   58.6    45    268.0    54.1   999.0 
 234    8:00    0.0    34   57.4    41    266.9    47.1   999.0 
 234    8:10    0.0    34   55.6    47    268.6    54.1   999.0 
 234    8:20    0.0    34   56.9    50    269.7    58.8   999.0 
 234    8:30    0.0    34   57.3    48    269.4    56.5   999.0 
 234    8:40    0.0    35   55.6    49    268.4    56.5   999.0 
 234    8:50    0.0    35   57.1    42    267.1    51.8   999.0 
 234    9:00    0.0    35   57.1    47    269.4    56.5   999.0 
 234    9:10    0.0    36   56.7    44    267.8    54.1   999.0 
 234    9:20    0.0    36   54.8    44    266.9    56.5   999.0 
 234    9:30    0.0    37   53.9    41    266.3    49.4   999.0 
 234    9:40    0.0    38   53.5    47    267.0    54.1   999.0 
 234    9:50    0.0    37   52.2    48    265.8    56.5   999.0 
 234   10:00    0.0    38   56.0    38    265.0    44.7   999.0 
 234   10:10    0.0    39   59.7    34    264.4    47.1   999.0 
 234   10:20    0.0    39   58.7    41    266.1    49.4   999.0 
 234   10:30    0.0    38   60.6    38    266.2    47.1   999.0 
 234   10:40    0.0    39   60.3    35    265.9    44.7   999.0 
 234   10:50    0.0    40   56.0    38    265.1    47.1   999.0 
 234   11:00    0.0    41   53.6    35    263.9    44.7   999.0 
 234   11:10    0.0    42   50.8    34    263.9    42.4   999.0 
 234   11:20    0.0    41   50.5    37    264.8    44.7   999.0 
 234   11:30    0.0    41   47.9    42    265.5    56.5   999.0 
 234   11:40    0.0    41   48.5    44    265.5    56.5   999.0 
 234   11:50    0.0    42   51.2    37    264.8    44.7   999.0 
 234   12:00    0.0    43   48.9    39    264.8    51.8   999.0 
 234   12:10    0.0    43   50.2    39    263.8    49.4   999.0 
 234   12:20    0.0    43   51.1    40    264.0    47.1   999.0 
 234   12:30    0.0    44   49.6    36    264.6    47.1   999.0 
 234   12:40    0.0    44   49.0    33    264.4    42.4   999.0 
 234   12:50    0.0    44   49.5    32    264.6    42.4   999.0 
 234   13:00    0.0    45   48.3    36    263.0    49.4   999.0 
 234   13:10    0.0    45   49.4    40    264.3    49.4   999.0 
 234   13:20    0.0    44   51.2    40    265.8    51.8   999.0 
 234   13:30    0.0    44   51.3    42    265.6    54.1   999.0 
 234   13:40    0.0    45   50.9    41    264.7    58.8   999.0 
 234   13:50    0.0    44   53.4    46    264.6    56.5   999.0 
 234   14:00    0.0    43   54.3    48    266.0    68.2   999.0 
 234   14:10    0.0    44   54.2    48    264.9    65.9   999.0 
 234   14:20    0.0    44   54.1    58    264.7    80.0   999.0 
 234   14:30    0.0    44   52.9    56    265.7    65.9   999.0 
 234   14:40    0.0    43   53.4    52    265.0    72.9   999.0 
 234   14:50    0.0    44   51.8    64    264.6    80.0   999.0 
 234   15:00    0.0    44   51.8    66    265.1    84.7   999.0 
 234   15:10    0.0    44   50.5    63    265.0    77.7   999.0 
 234   15:20    0.0    44   49.6    68    264.2    84.7   999.0 
 234   15:30    0.0    44   48.0    56    265.4    75.3   999.0 
 234   15:40    0.0    44   47.2    48    265.0    58.8   999.0 
 234   15:50    0.0    44   46.7    46    265.0    58.8   999.0 
 234   16:00    0.0    44   47.4    49    265.0    61.2   999.0 
 234   16:10    0.0    43   48.8    57    264.5    68.2   999.0 
 234   16:20    0.0    43   50.6    57    264.8    70.6   999.0 
 234   16:30    0.0    43   50.9    48    264.4    63.5   999.0 
 234   16:40    0.0    42   51.6    42    263.8    54.1   999.0 
 234   16:50    0.0    42   52.9    36    264.9    47.1   999.0 
 234   17:00    0.0    42   53.2    36    264.9    47.1   999.0 
 234   17:10    0.0    42   53.5    44    263.6    49.4   999.0 
 234   17:20    0.0    41   53.6    46    263.4    58.8   999.0 
 234   17:30    0.0    41   54.5    47    264.1    56.5   999.0 
 234   17:40    0.0    40   55.1    48    263.5    61.2   999.0 
 234   17:50    0.0    40   56.8    41    263.4    56.5   999.0 
 234   18:00    0.0    39   58.5    33    265.9    42.4   999.0 
 234   18:10    0.0    39   56.3    31    265.7    40.0   999.0 
 234   18:20    0.0    38   54.7    30    266.5    37.7   999.0 
 234   18:30    0.0    38   54.2    26    265.3    40.0   999.0 
 234   18:40    0.0    37   53.4    16    276.4    25.9   999.0 
 234   18:50    0.0    37   52.3    13    264.7    18.8   999.0 
 234   19:00    0.0    37   52.4    10    287.8    18.8   999.0 
 234   19:10    0.0    37   47.5    14    286.6    18.8   999.0 
 234   19:20    0.0    36   45.3    14    270.8    21.2   999.0 
 234   19:30    0.0    37   42.1    17    275.0    23.5   999.0 
 234   19:40    0.0    36   41.2    11    275.7    14.1   999.0 
 234   19:50    0.0    36   36.1    10    275.7    14.1   999.0 
 234   20:00    0.0    36   33.6    10    277.9    16.5   999.0 
 234   20:10    0.0    37   29.6    10    295.3    18.8   999.0 
 234   20:20    0.0    37   24.6    15    275.8    23.5   999.0 
 234   20:30    0.0    37   27.4    15    271.9    25.9   999.0 
 234   20:40    0.0    37   23.6    22    268.5    25.9   999.0 
 234   20:50    0.0    37   22.8    15    285.6    30.6   999.0 
 234   21:00    0.0    37   21.4    12    252.2    21.2   999.0 
 234   21:10    0.0    37   18.6    13    276.4    18.8   999.0 
 234   21:20    0.0    37   18.7    10    305.9    16.5   999.0 
 234   21:30    0.0    36   19.0    11    330.4    14.1   999.0 
 234   21:40    0.0    36   18.3    11    318.8    16.5   999.0 
 234   21:50    0.0    36   19.2     7    299.8    11.8   999.0 
 234   22:00    0.0    36   17.5     9    299.6    14.1   999.0 
 234   22:10    0.0    36   18.9     5    299.5     7.1   999.0 
 234   22:20    0.0    36   19.3     4    299.5     9.4   999.0 
 234   22:30    0.0    36   18.2     8    299.4    14.1   999.0 
 234   22:40    0.0    36   18.0     8    299.0    14.1   999.0 
 234   22:50    0.0    36   19.4     7    299.0    11.8   999.0 
 234   23:00    0.0    35   21.5     7    299.0     9.4   999.0 
 234   23:10    0.0    35   21.8     8    298.9     9.4   999.0 
 234   23:20    0.0    35   20.0    10    298.2    14.1   999.0 
 234   23:30    0.0    35   16.5    10    297.6    11.8   999.0 
 234   23:40    0.0    35   18.0    11    296.8    14.1   999.0 
 234   23:50    0.0    35   23.1    10    294.6    11.8   999.0 
 235    0:00    0.0    34   19.6    18    260.6    25.9   999.0 
 235    0:10    0.0    35   18.1    23    272.6    25.9   999.0 
 235    0:20    0.0    34   18.1    29    272.6    35.3   999.0 
 235    0:30    0.0    34   20.1    27    272.5    33.0   999.0 
 235    0:40    0.0    34   19.0    26    271.8    28.2   999.0 
 235    0:50    0.0    33   19.4    23    271.2    25.9   999.0 
 235    1:00    0.0    33   20.4    20    270.8    23.5   999.0 
 235    1:10    0.0    33   21.0    21    270.2    23.5   999.0 

Return to White Mountain graphs page.


Western Regional Climate Center,wrcc@dri.edu